PWSweather.com
Personal Weather Stations
Station Observations
KVAGLENALL
West Henrico, Glen Allen, VA 23060-6503

West HenricoGlen Allen, VA 23060-6503

Lat: 37.6554, Lon: -77.5693

Elevation: 273

Station Type: Davis Vantage Pro II

www.glenallenweather.com

High Low Average
Temperature 75.5°F24.2°C 45.5°F7.5°C 59.9°F15.5°C
Dew Point 59.0°F15.0°C 44.5°F6.9°C 51.7°F10.9°C
Winds 4.1 mph 6.6 kmh 0.1 mph 0.2 kmh 1.0 mph E1.6 kmh E
Wind Gusts 8.1 mph13.0 kmh 0.1 mph0.2 kmh 2.0 mph3.2 kmh
Humidity 99% 47% 77%
Pressure 30.48 in1032.2 mb 30.34 in1027.4 mb -
Precipitation 0.00 in0.0 mm - -
Hour Temp Dew Point Humidity Winds Wind Gusts Pressure Precip Precip Rate Daily Precip Total
12:00 AM 51.3°F10.7°C 49.3°F9.6°C 93% 0.1 mph NE0.2 kmh NE 0.1 mph0.2 kmh 30.34 in1027.4 mb 0.00 in0.0 mm 0.00 in0.0 mm 0.00 in0.0 mm
12:15 AM 51.2°F10.7°C 49.2°F9.6°C 93% 0.1 mph NE0.2 kmh NE 0.1 mph0.2 kmh 30.35 in1027.8 mb 0.00 in0.0 mm 0.00 in0.0 mm 0.00 in0.0 mm
12:30 AM 50.8°F10.4°C 48.8°F9.3°C 93% 0.1 mph NE0.2 kmh NE 0.1 mph0.2 kmh 30.35 in1027.8 mb 0.00 in0.0 mm 0.00 in0.0 mm 0.00 in0.0 mm
12:45 AM 50.4°F10.2°C 48.4°F9.1°C 93% 0.1 mph NE0.2 kmh NE 0.1 mph0.2 kmh 30.35 in1027.8 mb 0.00 in0.0 mm 0.00 in0.0 mm 0.00 in0.0 mm
01:00 AM 50.1°F10.1°C 48.4°F9.1°C 94% 0.1 mph NE0.2 kmh NE 0.1 mph0.2 kmh 30.35 in1027.8 mb 0.00 in0.0 mm 0.00 in0.0 mm 0.00 in0.0 mm
01:15 AM 50.0°F10.0°C 48.3°F9.1°C 94% 0.1 mph NE0.2 kmh NE 0.1 mph0.2 kmh 30.36 in1028.1 mb 0.00 in0.0 mm 0.00 in0.0 mm 0.00 in0.0 mm
01:30 AM 49.7°F9.8°C 48.0°F8.9°C 94% 0.1 mph NE0.2 kmh NE 0.1 mph0.2 kmh 30.36 in1028.1 mb 0.00 in0.0 mm 0.00 in0.0 mm 0.00 in0.0 mm
01:45 AM 49.5°F9.7°C 48.1°F8.9°C 95% 0.1 mph NE0.2 kmh NE 0.1 mph0.2 kmh 30.36 in1028.1 mb 0.00 in0.0 mm 0.00 in0.0 mm 0.00 in0.0 mm
02:00 AM 49.4°F9.7°C 48.0°F8.9°C 95% 0.1 mph NE0.2 kmh NE 0.1 mph0.2 kmh 30.36 in1028.1 mb 0.00 in0.0 mm 0.00 in0.0 mm 0.00 in0.0 mm
02:15 AM 49.2°F9.6°C 47.9°F8.8°C 95% 0.1 mph NE0.2 kmh NE 0.1 mph0.2 kmh 30.36 in1028.1 mb 0.00 in0.0 mm 0.00 in0.0 mm 0.00 in0.0 mm
02:30 AM 49.0°F9.4°C 47.7°F8.7°C 95% 0.1 mph NE0.2 kmh NE 0.1 mph0.2 kmh 30.36 in1028.1 mb 0.00 in0.0 mm 0.00 in0.0 mm 0.00 in0.0 mm
02:45 AM 48.6°F9.2°C 47.3°F8.5°C 95% 0.1 mph NE0.2 kmh NE 0.1 mph0.2 kmh 30.36 in1028.1 mb 0.00 in0.0 mm 0.00 in0.0 mm 0.00 in0.0 mm
03:00 AM 48.1°F8.9°C 46.8°F8.2°C 95% 0.1 mph NE0.2 kmh NE 0.1 mph0.2 kmh 30.36 in1028.1 mb 0.00 in0.0 mm 0.00 in0.0 mm 0.00 in0.0 mm
03:15 AM 47.8°F8.8°C 46.5°F8.1°C 95% 0.1 mph NE0.2 kmh NE 0.1 mph0.2 kmh 30.36 in1028.1 mb 0.00 in0.0 mm 0.00 in0.0 mm 0.00 in0.0 mm
03:30 AM 47.7°F8.7°C 46.4°F8.0°C 95% 0.1 mph NE0.2 kmh NE 0.1 mph0.2 kmh 30.35 in1027.8 mb 0.00 in0.0 mm 0.00 in0.0 mm 0.00 in0.0 mm
03:45 AM 47.6°F8.7°C 46.3°F7.9°C 95% 0.1 mph NE0.2 kmh NE 0.1 mph0.2 kmh 30.35 in1027.8 mb 0.00 in0.0 mm 0.00 in0.0 mm 0.00 in0.0 mm
04:00 AM 47.5°F8.6°C 46.2°F7.9°C 95% 0.1 mph NE0.2 kmh NE 0.1 mph0.2 kmh 30.35 in1027.8 mb 0.00 in0.0 mm 0.00 in0.0 mm 0.00 in0.0 mm
04:15 AM 47.3°F8.5°C 46.3°F7.9°C 96% 0.1 mph NE0.2 kmh NE 0.1 mph0.2 kmh 30.34 in1027.4 mb 0.00 in0.0 mm 0.00 in0.0 mm 0.00 in0.0 mm
04:30 AM 47.1°F8.4°C 46.1°F7.8°C 96% 0.1 mph NE0.2 kmh NE 0.1 mph0.2 kmh 30.35 in1027.8 mb 0.00 in0.0 mm 0.00 in0.0 mm 0.00 in0.0 mm
04:45 AM 46.9°F8.3°C 45.9°F7.7°C 96% 0.1 mph NE0.2 kmh NE 0.1 mph0.2 kmh 30.36 in1028.1 mb 0.00 in0.0 mm 0.00 in0.0 mm 0.00 in0.0 mm
05:00 AM 47.0°F8.3°C 46.0°F7.8°C 96% 0.1 mph NE0.2 kmh NE 0.1 mph0.2 kmh 30.36 in1028.1 mb 0.00 in0.0 mm 0.00 in0.0 mm 0.00 in0.0 mm
05:15 AM 46.7°F8.2°C 45.7°F7.6°C 96% 0.1 mph NE0.2 kmh NE 0.1 mph0.2 kmh 30.36 in1028.1 mb 0.00 in0.0 mm 0.00 in0.0 mm 0.00 in0.0 mm
05:30 AM 46.6°F8.1°C 45.6°F7.6°C 96% 0.1 mph NE0.2 kmh NE 0.1 mph0.2 kmh 30.36 in1028.1 mb 0.00 in0.0 mm 0.00 in0.0 mm 0.00 in0.0 mm
05:45 AM 46.6°F8.1°C 45.6°F7.6°C 96% 0.1 mph NE0.2 kmh NE 0.1 mph0.2 kmh 30.36 in1028.1 mb 0.00 in0.0 mm 0.00 in0.0 mm 0.00 in0.0 mm
06:00 AM 46.4°F8.0°C 45.4°F7.4°C 96% 0.1 mph NE0.2 kmh NE 0.1 mph0.2 kmh 30.36 in1028.1 mb 0.00 in0.0 mm 0.00 in0.0 mm 0.00 in0.0 mm
06:15 AM 46.1°F7.8°C 45.1°F7.3°C 96% 0.1 mph NE0.2 kmh NE 0.1 mph0.2 kmh 30.37 in1028.4 mb 0.00 in0.0 mm 0.00 in0.0 mm 0.00 in0.0 mm
06:30 AM 46.0°F7.8°C 45.0°F7.2°C 96% 0.1 mph NE0.2 kmh NE 0.1 mph0.2 kmh 30.37 in1028.4 mb 0.00 in0.0 mm 0.00 in0.0 mm 0.00 in0.0 mm
06:45 AM 45.7°F7.6°C 44.7°F7.1°C 96% 0.1 mph NE0.2 kmh NE 0.1 mph0.2 kmh 30.37 in1028.4 mb 0.00 in0.0 mm 0.00 in0.0 mm 0.00 in0.0 mm
07:00 AM 45.7°F7.6°C 44.7°F7.1°C 96% 0.1 mph NE0.2 kmh NE 0.1 mph0.2 kmh 30.38 in1028.8 mb 0.00 in0.0 mm 0.00 in0.0 mm 0.00 in0.0 mm
07:15 AM 45.5°F7.5°C 44.5°F6.9°C 96% 0.1 mph NE0.2 kmh NE 0.1 mph0.2 kmh 30.38 in1028.8 mb 0.00 in0.0 mm 0.00 in0.0 mm 0.00 in0.0 mm
07:30 AM 45.5°F7.5°C 44.7°F7.1°C 97% 0.1 mph NE0.2 kmh NE 1.1 mph1.8 kmh 30.39 in1029.1 mb 0.00 in0.0 mm 0.00 in0.0 mm 0.00 in0.0 mm
07:45 AM 46.2°F7.9°C 45.4°F7.4°C 97% 0.1 mph NE0.2 kmh NE 0.1 mph0.2 kmh 30.40 in1029.5 mb 0.00 in0.0 mm 0.00 in0.0 mm 0.00 in0.0 mm
08:00 AM 47.1°F8.4°C 46.6°F8.1°C 98% 1.0 mph NE1.6 kmh NE 1.1 mph1.8 kmh 30.40 in1029.5 mb 0.00 in0.0 mm 0.00 in0.0 mm 0.00 in0.0 mm
08:15 AM 48.3°F9.1°C 47.8°F8.8°C 98% 0.1 mph N0.2 kmh N 0.1 mph0.2 kmh 30.41 in1029.8 mb 0.00 in0.0 mm 0.00 in0.0 mm 0.00 in0.0 mm
08:30 AM 52.1°F11.2°C 51.5°F10.8°C 98% 0.1 mph N0.2 kmh N 1.1 mph1.8 kmh 30.41 in1029.8 mb 0.00 in0.0 mm 0.00 in0.0 mm 0.00 in0.0 mm
08:45 AM 54.5°F12.5°C 54.2°F12.3°C 99% 0.1 mph N0.2 kmh N 1.1 mph1.8 kmh 30.41 in1029.8 mb 0.00 in0.0 mm 0.00 in0.0 mm 0.00 in0.0 mm
09:00 AM 57.3°F14.1°C 55.6°F13.1°C 94% 1.0 mph N1.6 kmh N 2.1 mph3.4 kmh 30.42 in1030.1 mb 0.00 in0.0 mm 0.00 in0.0 mm 0.00 in0.0 mm
09:15 AM 60.3°F15.7°C 56.1°F13.4°C 86% 1.0 mph NE1.6 kmh NE 3.1 mph5.0 kmh 30.42 in1030.1 mb 0.00 in0.0 mm 0.00 in0.0 mm 0.00 in0.0 mm
09:30 AM 62.4°F16.9°C 57.2°F14.0°C 83% 1.0 mph E1.6 kmh E 2.1 mph3.4 kmh 30.42 in1030.1 mb 0.00 in0.0 mm 0.00 in0.0 mm 0.00 in0.0 mm
09:45 AM 64.0°F17.8°C 57.4°F14.1°C 79% 0.1 mph WSW0.2 kmh WSW 1.1 mph1.8 kmh 30.42 in1030.1 mb 0.00 in0.0 mm 0.00 in0.0 mm 0.00 in0.0 mm
10:00 AM 66.0°F18.9°C 57.9°F14.4°C 75% 1.0 mph NNW1.6 kmh NNW 1.1 mph1.8 kmh 30.42 in1030.1 mb 0.00 in0.0 mm 0.00 in0.0 mm 0.00 in0.0 mm
10:15 AM 67.1°F19.5°C 58.6°F14.8°C 74% 4.1 mph NNE6.6 kmh NNE 4.1 mph6.6 kmh 30.43 in1030.5 mb 0.00 in0.0 mm 0.00 in0.0 mm 0.00 in0.0 mm
10:30 AM 68.3°F20.2°C 59.0°F15.0°C 72% 2.0 mph NW3.2 kmh NW 3.1 mph5.0 kmh 30.43 in1030.5 mb 0.00 in0.0 mm 0.00 in0.0 mm 0.00 in0.0 mm
10:45 AM 69.4°F20.8°C 58.3°F14.6°C 68% 0.1 mph NE0.2 kmh NE 4.1 mph6.6 kmh 30.44 in1030.8 mb 0.00 in0.0 mm 0.00 in0.0 mm 0.00 in0.0 mm
11:00 AM 69.4°F20.8°C 56.2°F13.4°C 63% 1.0 mph WSW1.6 kmh WSW 2.1 mph3.4 kmh 30.44 in1030.8 mb 0.00 in0.0 mm 0.00 in0.0 mm 0.00 in0.0 mm
11:15 AM 68.7°F20.4°C 56.1°F13.4°C 64% 3.0 mph NNE4.8 kmh NNE 4.1 mph6.6 kmh 30.43 in1030.5 mb 0.00 in0.0 mm 0.00 in0.0 mm 0.00 in0.0 mm
11:30 AM 69.8°F21.0°C 55.3°F12.9°C 60% 1.0 mph ENE1.6 kmh ENE 2.1 mph3.4 kmh 30.44 in1030.8 mb 0.00 in0.0 mm 0.00 in0.0 mm 0.00 in0.0 mm
11:45 AM 72.4°F22.4°C 56.3°F13.5°C 57% 0.1 mph S0.2 kmh S 2.1 mph3.4 kmh 30.44 in1030.8 mb 0.00 in0.0 mm 0.00 in0.0 mm 0.00 in0.0 mm
12:00 PM 72.3°F22.4°C 54.7°F12.6°C 54% 2.0 mph NNE3.2 kmh NNE 3.1 mph5.0 kmh 30.43 in1030.5 mb 0.00 in0.0 mm 0.00 in0.0 mm 0.00 in0.0 mm
12:15 PM 73.0°F22.8°C 55.9°F13.3°C 55% 0.1 mph E0.2 kmh E 4.1 mph6.6 kmh 30.43 in1030.5 mb 0.00 in0.0 mm 0.00 in0.0 mm 0.00 in0.0 mm
12:30 PM 72.0°F22.2°C 54.9°F12.7°C 55% 0.1 mph SSE0.2 kmh SSE 1.1 mph1.8 kmh 30.43 in1030.5 mb 0.00 in0.0 mm 0.00 in0.0 mm 0.00 in0.0 mm
12:45 PM 70.7°F21.5°C 53.7°F12.1°C 55% 0.1 mph S0.2 kmh S 1.1 mph1.8 kmh 30.43 in1030.5 mb 0.00 in0.0 mm 0.00 in0.0 mm 0.00 in0.0 mm
01:00 PM 73.1°F22.8°C 55.5°F13.1°C 54% 2.0 mph N3.2 kmh N 3.1 mph5.0 kmh 30.43 in1030.5 mb 0.00 in0.0 mm 0.00 in0.0 mm 0.00 in0.0 mm
01:15 PM 73.6°F23.1°C 56.4°F13.6°C 55% 4.1 mph NNE6.6 kmh NNE 8.1 mph13.0 kmh 30.42 in1030.1 mb 0.00 in0.0 mm 0.00 in0.0 mm 0.00 in0.0 mm
01:30 PM 73.4°F23.0°C 54.2°F12.3°C 51% 1.0 mph SSE1.6 kmh SSE 6.1 mph9.8 kmh 30.42 in1030.1 mb 0.00 in0.0 mm 0.00 in0.0 mm 0.00 in0.0 mm
01:45 PM 73.8°F23.2°C 54.5°F12.5°C 51% 3.0 mph ESE4.8 kmh ESE 6.1 mph9.8 kmh 30.42 in1030.1 mb 0.00 in0.0 mm 0.00 in0.0 mm 0.00 in0.0 mm
02:00 PM 74.1°F23.4°C 54.8°F12.7°C 51% 4.1 mph ESE6.6 kmh ESE 7.1 mph11.4 kmh 30.41 in1029.8 mb 0.00 in0.0 mm 0.00 in0.0 mm 0.00 in0.0 mm
02:15 PM 74.6°F23.7°C 54.7°F12.6°C 50% 1.0 mph ESE1.6 kmh ESE 2.1 mph3.4 kmh 30.40 in1029.5 mb 0.00 in0.0 mm 0.00 in0.0 mm 0.00 in0.0 mm
02:30 PM 74.2°F23.4°C 54.4°F12.4°C 50% 0.1 mph ESE0.2 kmh ESE 2.1 mph3.4 kmh 30.40 in1029.5 mb 0.00 in0.0 mm 0.00 in0.0 mm 0.00 in0.0 mm
02:45 PM 74.4°F23.6°C 55.1°F12.8°C 51% 3.0 mph NE4.8 kmh NE 4.1 mph6.6 kmh 30.40 in1029.5 mb 0.00 in0.0 mm 0.00 in0.0 mm 0.00 in0.0 mm
03:00 PM 75.0°F23.9°C 54.0°F12.2°C 48% 0.1 mph S0.2 kmh S 4.1 mph6.6 kmh 30.39 in1029.1 mb 0.00 in0.0 mm 0.00 in0.0 mm 0.00 in0.0 mm
03:15 PM 75.5°F24.2°C 55.0°F12.8°C 49% 4.1 mph SW6.6 kmh SW 7.1 mph11.4 kmh 30.38 in1028.8 mb 0.00 in0.0 mm 0.00 in0.0 mm 0.00 in0.0 mm
03:30 PM 75.0°F23.9°C 54.0°F12.2°C 48% 3.0 mph E4.8 kmh E 7.1 mph11.4 kmh 30.38 in1028.8 mb 0.00 in0.0 mm 0.00 in0.0 mm 0.00 in0.0 mm
03:45 PM 74.6°F23.7°C 53.0°F11.7°C 47% 4.1 mph E6.6 kmh E 4.1 mph6.6 kmh 30.39 in1029.1 mb 0.00 in0.0 mm 0.00 in0.0 mm 0.00 in0.0 mm
04:00 PM 74.0°F23.3°C 53.6°F12.0°C 49% 0.1 mph NW0.2 kmh NW 2.1 mph3.4 kmh 30.38 in1028.8 mb 0.00 in0.0 mm 0.00 in0.0 mm 0.00 in0.0 mm
04:15 PM 73.2°F22.9°C 52.9°F11.6°C 49% 3.0 mph ESE4.8 kmh ESE 4.1 mph6.6 kmh 30.38 in1028.8 mb 0.00 in0.0 mm 0.00 in0.0 mm 0.00 in0.0 mm
04:30 PM 73.6°F23.1°C 53.3°F11.8°C 49% 1.0 mph SE1.6 kmh SE 4.1 mph6.6 kmh 30.38 in1028.8 mb 0.00 in0.0 mm 0.00 in0.0 mm 0.00 in0.0 mm
04:45 PM 73.3°F22.9°C 53.5°F11.9°C 50% 2.0 mph ESE3.2 kmh ESE 6.1 mph9.8 kmh 30.38 in1028.8 mb 0.00 in0.0 mm 0.00 in0.0 mm 0.00 in0.0 mm
05:00 PM 72.9°F22.7°C 53.2°F11.8°C 50% 3.0 mph E4.8 kmh E 4.1 mph6.6 kmh 30.39 in1029.1 mb 0.00 in0.0 mm 0.00 in0.0 mm 0.00 in0.0 mm
05:15 PM 72.3°F22.4°C 52.1°F11.2°C 49% 0.1 mph SE0.2 kmh SE 1.1 mph1.8 kmh 30.39 in1029.1 mb 0.00 in0.0 mm 0.00 in0.0 mm 0.00 in0.0 mm
05:30 PM 71.7°F22.1°C 52.6°F11.4°C 51% 1.0 mph SE1.6 kmh SE 2.1 mph3.4 kmh 30.39 in1029.1 mb 0.00 in0.0 mm 0.00 in0.0 mm 0.00 in0.0 mm
05:45 PM 71.2°F21.8°C 53.2°F11.8°C 53% 1.0 mph E1.6 kmh E 3.1 mph5.0 kmh 30.40 in1029.5 mb 0.00 in0.0 mm 0.00 in0.0 mm 0.00 in0.0 mm
06:00 PM 70.2°F21.2°C 53.3°F11.8°C 55% 2.0 mph SE3.2 kmh SE 3.1 mph5.0 kmh 30.40 in1029.5 mb 0.00 in0.0 mm 0.00 in0.0 mm 0.00 in0.0 mm
06:15 PM 69.2°F20.7°C 53.9°F12.2°C 58% 0.1 mph E0.2 kmh E 1.1 mph1.8 kmh 30.40 in1029.5 mb 0.00 in0.0 mm 0.00 in0.0 mm 0.00 in0.0 mm
06:30 PM 67.9°F19.9°C 54.0°F12.2°C 61% 0.1 mph E0.2 kmh E 1.1 mph1.8 kmh 30.40 in1029.5 mb 0.00 in0.0 mm 0.00 in0.0 mm 0.00 in0.0 mm
06:45 PM 66.8°F19.3°C 54.3°F12.4°C 64% 2.0 mph E3.2 kmh E 2.1 mph3.4 kmh 30.41 in1029.8 mb 0.00 in0.0 mm 0.00 in0.0 mm 0.00 in0.0 mm
07:00 PM 65.5°F18.6°C 53.9°F12.2°C 66% 0.1 mph E0.2 kmh E 1.1 mph1.8 kmh 30.41 in1029.8 mb 0.00 in0.0 mm 0.00 in0.0 mm 0.00 in0.0 mm
07:15 PM 64.2°F17.9°C 53.9°F12.2°C 69% 0.1 mph E0.2 kmh E 1.1 mph1.8 kmh 30.41 in1029.8 mb 0.00 in0.0 mm 0.00 in0.0 mm 0.00 in0.0 mm
07:30 PM 63.0°F17.2°C 53.5°F11.9°C 71% 0.1 mph E0.2 kmh E 0.1 mph0.2 kmh 30.41 in1029.8 mb 0.00 in0.0 mm 0.00 in0.0 mm 0.00 in0.0 mm
07:45 PM 62.1°F16.7°C 53.7°F12.1°C 74% 0.1 mph SSE0.2 kmh SSE 1.1 mph1.8 kmh 30.41 in1029.8 mb 0.00 in0.0 mm 0.00 in0.0 mm 0.00 in0.0 mm
08:00 PM 61.6°F16.4°C 53.6°F12.0°C 75% 0.1 mph SSE0.2 kmh SSE 0.1 mph0.2 kmh 30.42 in1030.1 mb 0.00 in0.0 mm 0.00 in0.0 mm 0.00 in0.0 mm
08:15 PM 60.7°F15.9°C 53.5°F11.9°C 77% 0.1 mph SSE0.2 kmh SSE 0.1 mph0.2 kmh 30.42 in1030.1 mb 0.00 in0.0 mm 0.00 in0.0 mm 0.00 in0.0 mm
08:30 PM 60.0°F15.6°C 53.5°F11.9°C 79% 0.1 mph SSE0.2 kmh SSE 0.1 mph0.2 kmh 30.43 in1030.5 mb 0.00 in0.0 mm 0.00 in0.0 mm 0.00 in0.0 mm
08:45 PM 59.4°F15.2°C 53.2°F11.8°C 80% 0.1 mph SSE0.2 kmh SSE 0.1 mph0.2 kmh 30.43 in1030.5 mb 0.00 in0.0 mm 0.00 in0.0 mm 0.00 in0.0 mm
09:00 PM 58.7°F14.8°C 52.9°F11.6°C 81% 0.1 mph SSE0.2 kmh SSE 0.1 mph0.2 kmh 30.43 in1030.5 mb 0.00 in0.0 mm 0.00 in0.0 mm 0.00 in0.0 mm
09:15 PM 58.1°F14.5°C 52.6°F11.4°C 82% 0.1 mph SSE0.2 kmh SSE 0.1 mph0.2 kmh 30.44 in1030.8 mb 0.00 in0.0 mm 0.00 in0.0 mm 0.00 in0.0 mm
09:30 PM 57.4°F14.1°C 52.6°F11.4°C 84% 0.1 mph SSE0.2 kmh SSE 0.1 mph0.2 kmh 30.44 in1030.8 mb 0.00 in0.0 mm 0.00 in0.0 mm 0.00 in0.0 mm
09:45 PM 56.9°F13.8°C 52.1°F11.2°C 84% 0.1 mph SSE0.2 kmh SSE 0.1 mph0.2 kmh 30.45 in1031.2 mb 0.00 in0.0 mm 0.00 in0.0 mm 0.00 in0.0 mm
10:00 PM 56.5°F13.6°C 52.4°F11.3°C 86% 0.1 mph SSE0.2 kmh SSE 0.1 mph0.2 kmh 30.45 in1031.2 mb 0.00 in0.0 mm 0.00 in0.0 mm 0.00 in0.0 mm
10:15 PM 57.1°F13.9°C 52.9°F11.6°C 86% 0.1 mph E0.2 kmh E 1.1 mph1.8 kmh 30.45 in1031.2 mb 0.00 in0.0 mm 0.00 in0.0 mm 0.00 in0.0 mm
10:30 PM 56.8°F13.8°C 52.7°F11.5°C 86% 1.0 mph E1.6 kmh E 1.1 mph1.8 kmh 30.46 in1031.5 mb 0.00 in0.0 mm 0.00 in0.0 mm 0.00 in0.0 mm
10:45 PM 56.6°F13.7°C 52.8°F11.6°C 87% 1.0 mph ENE1.6 kmh ENE 1.1 mph1.8 kmh 30.46 in1031.5 mb 0.00 in0.0 mm 0.00 in0.0 mm 0.00 in0.0 mm
11:00 PM 55.7°F13.2°C 52.2°F11.2°C 88% 0.1 mph ENE0.2 kmh ENE 0.1 mph0.2 kmh 30.47 in1031.8 mb 0.00 in0.0 mm 0.00 in0.0 mm 0.00 in0.0 mm
11:15 PM 55.5°F13.1°C 52.3°F11.3°C 89% 0.1 mph ENE0.2 kmh ENE 0.1 mph0.2 kmh 30.47 in1031.8 mb 0.00 in0.0 mm 0.00 in0.0 mm 0.00 in0.0 mm
11:30 PM 55.0°F12.8°C 51.8°F11.0°C 89% 0.1 mph ENE0.2 kmh ENE 0.1 mph0.2 kmh 30.48 in1032.2 mb 0.00 in0.0 mm 0.00 in0.0 mm 0.00 in0.0 mm
11:45 PM 54.6°F12.6°C 52.0°F11.1°C 91% 0.1 mph ENE0.2 kmh ENE 0.1 mph0.2 kmh 30.48 in1032.2 mb 0.00 in0.0 mm 0.00 in0.0 mm 0.00 in0.0 mm